createdAt,value
2023-04-01T00:00:54.853Z,56.33
2023-04-01T00:03:24.579Z,53.17
2023-04-01T00:05:52.828Z,55.50
2023-04-01T00:08:20.746Z,58.00
2023-04-01T00:10:48.581Z,59.20
2023-04-01T00:13:17.318Z,58.15
2023-04-01T00:15:46.816Z,48.78
2023-04-01T00:18:14.925Z,62.63
2023-04-01T00:20:47.395Z,45.92
2023-04-01T00:23:16.255Z,48.92
2023-04-01T00:25:46.361Z,54.78
2023-04-01T00:28:14.009Z,59.30
2023-04-01T00:30:42.352Z,53.58
2023-04-01T00:33:10.116Z,55.35
2023-04-01T00:35:38.850Z,52.22
2023-04-01T00:38:07.692Z,41.05
2023-04-01T00:40:39.369Z,50.45
2023-04-01T00:43:25.693Z,52.65
2023-04-01T00:45:53.351Z,43.15
2023-04-01T00:48:26.615Z,43.25
2023-04-01T00:51:06.419Z,45.38
2023-04-01T00:53:37.990Z,49.80
2023-04-01T00:56:13.864Z,48.80
2023-04-01T00:58:52.961Z,53.65
2023-04-01T01:01:24.330Z,44.80
2023-04-01T01:03:51.996Z,45.28
2023-04-01T01:06:40.145Z,50.50
2023-04-01T01:09:15.596Z,48.95
2023-04-01T01:11:51.862Z,49.30
2023-04-01T01:14:44.719Z,60.85
2023-04-01T01:17:37.363Z,51.60
2023-04-01T01:20:25.959Z,65.95
2023-04-01T01:23:16.199Z,60.25
2023-04-01T01:26:00.497Z,69.15
2023-04-01T01:28:50.309Z,65.47
2023-04-01T01:31:35.032Z,69.47
2023-04-01T01:34:33.788Z,65.82
2023-04-01T01:37:10.829Z,60.63
2023-04-01T01:39:40.774Z,69.43
2023-04-01T01:42:12.751Z,61.22
2023-04-01T01:44:44.106Z,67.72
2023-04-01T01:47:14.598Z,70.22
2023-04-01T01:49:44.531Z,71.70
2023-04-01T01:52:13.857Z,75.65
2023-04-01T01:54:55.749Z,81.85
2023-04-01T02:00:13.903Z,75.45
2023-04-01T02:02:47.199Z,76.05
2023-04-01T02:05:22.885Z,74.32
2023-04-01T02:08:02.768Z,83.30
2023-04-01T02:10:35.426Z,87.22
2023-04-01T02:13:09.009Z,77.22
2023-04-01T02:15:44.368Z,75.50
2023-04-01T02:18:14.449Z,74.47
2023-04-01T02:20:44.346Z,79.47
2023-04-01T02:23:12.983Z,76.78
2023-04-01T02:25:43.440Z,76.20
2023-04-01T02:28:13.409Z,69.97
2023-04-01T02:30:43.943Z,63.92
2023-04-01T02:33:12.414Z,69.97
2023-04-01T02:35:40.437Z,69.35
2023-04-01T02:38:09.746Z,70.50
2023-04-01T02:40:50.635Z,57.15
2023-04-01T02:43:20.042Z,69.45
2023-04-01T02:45:48.069Z,66.07
2023-04-01T02:48:16.121Z,69.53
2023-04-01T02:50:43.826Z,65.63
2023-04-01T02:53:12.355Z,64.13
2023-04-01T02:55:40.452Z,73.90
2023-04-01T02:58:08.544Z,63.38
2023-04-01T03:00:36.466Z,54.72
2023-04-01T03:03:04.931Z,60.67
2023-04-01T03:05:32.847Z,61.92
2023-04-01T03:08:01.057Z,53.13
2023-04-01T03:10:29.160Z,49.15
2023-04-01T03:12:56.855Z,58.40
2023-04-01T03:15:24.938Z,56.83
2023-04-01T03:17:52.638Z,48.92
2023-04-01T03:20:21.349Z,55.05
2023-04-01T03:22:49.477Z,59.85
2023-04-01T03:25:19.675Z,58.53
2023-04-01T03:27:47.244Z,59.40
2023-04-01T03:30:14.848Z,54.58
2023-04-01T03:32:51.579Z,52.75
2023-04-01T03:35:19.532Z,54.30
2023-04-01T03:37:47.994Z,46.13
2023-04-01T03:40:16.215Z,54.58
2023-04-01T03:42:44.245Z,57.53
2023-04-01T03:45:13.105Z,51.53
2023-04-01T03:50:32.823Z,52.28
2023-04-01T03:53:01.223Z,53.42
2023-04-01T03:55:29.401Z,46.13
2023-04-01T03:57:57.515Z,67.25
2023-04-01T04:00:25.184Z,51.10
2023-04-01T04:02:57.735Z,58.25
2023-04-01T04:05:31.409Z,52.83
2023-04-01T04:07:59.739Z,56.10
2023-04-01T04:10:28.106Z,54.50
2023-04-01T04:12:56.219Z,62.88
2023-04-01T04:15:26.542Z,63.28
2023-04-01T04:17:54.165Z,57.83
2023-04-01T04:20:21.835Z,59.60
2023-04-01T04:22:50.233Z,63.33
2023-04-01T04:25:18.432Z,63.45
2023-04-01T04:27:46.561Z,64.40
2023-04-01T04:30:16.208Z,61.22
2023-04-01T04:32:44.280Z,56.60
2023-04-01T04:35:13.315Z,62.10
2023-04-01T04:37:41.938Z,69.93
2023-04-01T04:40:10.170Z,59.97
2023-04-01T04:42:37.892Z,67.72
2023-04-01T04:45:11.876Z,67.15
2023-04-01T04:47:43.364Z,57.55
2023-04-01T04:50:12.808Z,64.15
2023-04-01T04:52:42.493Z,61.80
2023-04-01T04:55:10.668Z,65.38
2023-04-01T04:57:39.340Z,72.32
2023-04-01T05:00:07.682Z,68.13
2023-04-01T05:02:58.020Z,62.45
2023-04-01T05:05:26.218Z,60.58
2023-04-01T05:07:54.407Z,71.20
2023-04-01T05:10:22.178Z,70.07
2023-04-01T05:12:50.929Z,67.53
2023-04-01T05:15:22.568Z,63.85
2023-04-01T05:17:50.363Z,59.38
2023-04-01T05:20:18.732Z,62.20
2023-04-01T05:22:46.378Z,61.85
2023-04-01T05:25:14.162Z,52.65
2023-04-01T05:27:42.652Z,48.25
2023-04-01T05:30:10.942Z,47.80
2023-04-01T05:35:32.498Z,57.05
2023-04-01T05:38:00.886Z,47.10
2023-04-01T05:40:30.290Z,40.88
2023-04-01T05:42:58.534Z,45.28
2023-04-01T05:45:26.275Z,39.95
2023-04-01T05:47:56.727Z,49.13
2023-04-01T05:50:24.817Z,44.40
2023-04-01T05:52:52.541Z,54.10
2023-04-01T05:55:20.645Z,48.38
2023-04-01T05:57:50.576Z,62.33
2023-04-01T06:00:21.034Z,49.38
2023-04-01T06:02:49.301Z,53.28
2023-04-01T06:05:24.214Z,55.50
2023-04-01T06:07:59.348Z,52.55
2023-04-01T06:10:54.130Z,59.00
2023-04-01T06:13:47.235Z,65.03
2023-04-01T06:16:39.542Z,60.17
2023-04-01T06:19:12.180Z,58.28
2023-04-01T06:22:04.439Z,51.65
2023-04-01T06:24:41.893Z,59.08
2023-04-01T06:27:46.592Z,58.95
2023-04-01T06:30:54.505Z,65.40
2023-04-01T06:34:11.612Z,62.03
2023-04-01T06:37:13.559Z,80.20
2023-04-01T06:39:59.732Z,65.25
2023-04-01T06:42:52.228Z,80.03
2023-04-01T06:45:51.076Z,66.88
2023-04-01T06:48:39.928Z,66.43
2023-04-01T06:51:57.710Z,66.35
2023-04-01T06:54:57.202Z,81.43
2023-04-01T06:58:01.509Z,68.68
2023-04-01T07:00:41.099Z,72.43
2023-04-01T07:03:54.766Z,66.40
2023-04-01T07:06:31.660Z,55.90
2023-04-01T07:09:06.625Z,54.70
2023-04-01T07:11:59.021Z,59.45
2023-04-01T07:14:52.446Z,49.53
2023-04-01T07:17:35.176Z,55.42
2023-04-01T07:20:12.345Z,51.05
2023-04-01T07:22:45.804Z,49.45
2023-04-01T07:25:32.755Z,47.97
2023-04-01T07:28:20.339Z,58.83
2023-04-01T07:31:17.001Z,53.58
2023-04-01T07:34:16.395Z,48.72
2023-04-01T07:37:07.102Z,56.50
2023-04-01T07:39:44.798Z,52.47
2023-04-01T07:42:26.385Z,44.72
2023-04-01T07:45:32.261Z,50.75
2023-04-01T07:48:07.121Z,46.95
2023-04-01T07:50:51.892Z,55.95
2023-04-01T07:53:37.994Z,54.50
2023-04-01T07:56:10.836Z,45.78
2023-04-01T07:58:52.855Z,43.47
2023-04-01T08:01:46.458Z,50.13
2023-04-01T08:04:24.617Z,50.35
2023-04-01T08:07:08.019Z,48.47
2023-04-01T08:10:21.332Z,45.45
2023-04-01T08:14:09.312Z,48.97
2023-04-01T08:17:04.049Z,45.03
2023-04-01T08:20:18.748Z,45.42
2023-04-01T08:23:06.657Z,40.88
2023-04-01T08:26:04.162Z,41.72
2023-04-01T08:28:55.882Z,43.38
2023-04-01T08:31:32.460Z,40.67
2023-04-01T08:34:05.911Z,45.67
2023-04-01T08:36:42.160Z,51.13
2023-04-01T08:39:32.462Z,45.40
2023-04-01T08:42:13.583Z,42.40
2023-04-01T08:45:25.865Z,49.97
2023-04-01T08:48:23.569Z,43.38
2023-04-01T08:51:18.664Z,39.85
2023-04-01T08:53:58.623Z,45.40
2023-04-01T08:56:56.208Z,43.38
2023-04-01T08:59:54.744Z,39.53
2023-04-01T09:02:58.347Z,36.45
2023-04-01T09:05:49.009Z,45.30
2023-04-01T09:08:35.597Z,37.70
2023-04-01T09:11:26.963Z,39.55
2023-04-01T09:14:16.985Z,49.70
2023-04-01T09:17:26.215Z,44.20
2023-04-01T09:20:30.779Z,41.97
2023-04-01T09:23:41.676Z,37.50
2023-04-01T09:26:09.549Z,37.17
2023-04-01T09:28:57.454Z,32.40
2023-04-01T09:31:53.777Z,34.63
2023-04-01T09:35:23.053Z,30.88
2023-04-01T09:38:10.845Z,33.58
2023-04-01T09:40:38.553Z,24.98
2023-04-01T09:43:26.982Z,26.70
2023-04-01T09:46:08.250Z,26.98
2023-04-01T09:48:59.482Z,26.90
2023-04-01T09:51:50.935Z,24.50
2023-04-01T09:54:38.117Z,27.13
2023-04-01T09:57:15.359Z,23.30
2023-04-01T10:00:18.418Z,20.95
2023-04-01T10:03:30.071Z,23.15
2023-04-01T10:06:08.737Z,19.67
2023-04-01T10:09:18.733Z,21.70
2023-04-01T10:12:34.659Z,15.20
2023-04-01T10:15:31.346Z,10.05
2023-04-01T10:18:35.785Z,6.03
2023-04-01T10:21:08.124Z,6.40
2023-04-01T10:24:17.190Z,4.80
2023-04-01T10:27:32.222Z,3.65
2023-04-01T10:30:18.255Z,4.68
2023-04-01T10:33:16.499Z,8.45
2023-04-01T10:36:12.182Z,9.10
2023-04-01T10:38:43.308Z,5.82
2023-04-01T10:41:42.453Z,5.72
2023-04-01T10:44:49.988Z,9.38
2023-04-01T10:48:07.859Z,8.40
2023-04-01T10:51:16.027Z,5.30
2023-04-01T10:54:02.656Z,12.88
2023-04-01T10:57:17.831Z,7.68
2023-04-01T11:00:38.555Z,4.93
2023-04-01T11:03:57.716Z,6.15
2023-04-01T11:07:07.767Z,8.02
2023-04-01T11:10:00.485Z,3.55
2023-04-01T11:12:36.155Z,4.07
2023-04-01T11:15:53.588Z,5.03
2023-04-01T11:18:49.549Z,6.07
2023-04-01T11:21:50.728Z,6.80
2023-04-01T11:24:54.878Z,4.15
2023-04-01T11:27:51.831Z,5.28
2023-04-01T11:30:59.772Z,3.13
2023-04-01T11:33:34.777Z,2.92
2023-04-01T11:36:08.795Z,4.82
2023-04-01T11:38:52.336Z,4.43
2023-04-01T11:41:47.393Z,5.43
2023-04-01T11:44:41.114Z,5.00
2023-04-01T11:48:02.283Z,3.63
2023-04-01T11:51:04.990Z,4.47
2023-04-01T11:53:39.276Z,5.55
2023-04-01T11:56:26.376Z,4.60
2023-04-01T11:59:05.537Z,6.15
2023-04-01T12:01:53.479Z,9.20
2023-04-01T12:04:44.157Z,6.97
2023-04-01T12:07:14.776Z,9.60
2023-04-01T12:10:19.914Z,6.95
2023-04-01T12:13:11.373Z,5.82
2023-04-01T12:15:42.725Z,4.43
2023-04-01T12:18:27.371Z,9.05
2023-04-01T12:21:01.938Z,6.00
2023-04-01T12:23:54.217Z,5.70
2023-04-01T12:26:46.427Z,4.80
2023-04-01T12:29:52.094Z,5.22
2023-04-01T12:32:29.380Z,3.97
2023-04-01T12:35:21.579Z,3.67
2023-04-01T12:38:19.158Z,4.78
2023-04-01T12:41:02.224Z,4.70
2023-04-01T12:44:00.869Z,5.53
2023-04-01T12:46:49.504Z,4.60
2023-04-01T12:49:38.887Z,3.97
2023-04-01T12:52:40.528Z,5.10
2023-04-01T12:55:26.641Z,4.45
2023-04-01T12:58:49.135Z,11.15
2023-04-01T13:01:56.008Z,3.88
2023-04-01T13:04:46.205Z,4.80
2023-04-01T13:07:21.418Z,4.22
2023-04-01T13:10:21.634Z,11.25
2023-04-01T13:13:27.249Z,5.18
2023-04-01T13:16:11.204Z,5.53
2023-04-01T13:18:55.090Z,6.68
2023-04-01T13:21:39.894Z,7.20
2023-04-01T13:24:33.257Z,4.47
2023-04-01T13:29:45.474Z,5.13
2023-04-01T13:32:43.246Z,7.28
2023-04-01T13:35:42.405Z,5.00
2023-04-01T13:38:37.785Z,4.25
2023-04-01T13:41:23.011Z,6.53
2023-04-01T13:44:11.030Z,5.38
2023-04-01T13:47:11.864Z,5.18
2023-04-01T13:49:51.739Z,5.05
2023-04-01T13:52:48.363Z,4.10
2023-04-01T13:55:29.234Z,3.88
2023-04-01T13:58:39.418Z,7.15
2023-04-01T14:01:08.750Z,5.55
2023-04-01T14:03:42.411Z,7.25
2023-04-01T14:06:21.672Z,4.53
2023-04-01T14:08:54.926Z,3.70
2023-04-01T14:11:32.085Z,4.55
2023-04-01T14:14:21.141Z,4.57
2023-04-01T14:17:14.240Z,5.57
2023-04-01T14:20:03.501Z,4.07
2023-04-01T14:22:43.969Z,3.65
2023-04-01T14:25:39.814Z,3.80
2023-04-01T14:28:14.018Z,5.82
2023-04-01T14:30:58.948Z,5.63
2023-04-01T14:33:47.414Z,6.55
2023-04-01T14:36:27.294Z,3.75
2023-04-01T14:39:21.139Z,3.63
2023-04-01T14:42:21.514Z,4.75
2023-04-01T14:44:59.175Z,7.22
2023-04-01T14:47:49.373Z,4.78
2023-04-01T14:50:22.353Z,4.80
2023-04-01T14:55:42.998Z,5.38
2023-04-01T14:58:15.871Z,4.07
2023-04-01T15:03:49.070Z,5.45
2023-04-01T15:06:22.519Z,4.93
2023-04-01T15:09:10.309Z,5.30
2023-04-01T15:11:50.297Z,3.90
2023-04-01T15:14:39.726Z,4.32
2023-04-01T15:17:22.208Z,5.07
2023-04-01T15:20:20.696Z,8.48
2023-04-01T15:23:09.370Z,5.22
2023-04-01T15:25:52.360Z,4.85
2023-04-01T15:28:34.803Z,5.93
2023-04-01T15:31:12.451Z,5.45
2023-04-01T15:33:43.127Z,7.15
2023-04-01T15:36:34.188Z,5.10
2023-04-01T15:39:36.998Z,7.95
2023-04-01T15:42:46.516Z,6.68
2023-04-01T15:45:19.766Z,5.63
2023-04-01T15:48:02.322Z,5.47
2023-04-01T15:50:42.452Z,5.22
2023-04-01T15:53:25.816Z,5.38
2023-04-01T15:58:38.691Z,1.58
2023-04-01T16:01:44.208Z,2.50
2023-04-01T16:04:39.437Z,7.07
2023-04-01T16:07:16.395Z,5.40
2023-04-01T16:10:10.674Z,3.92
2023-04-01T16:12:47.902Z,2.90
2023-04-01T16:15:29.491Z,2.45
2023-04-01T16:18:48.389Z,2.70
2023-04-01T16:21:53.584Z,3.05
2023-04-01T16:24:26.534Z,2.70
2023-04-01T16:27:05.338Z,4.40
2023-04-01T16:29:52.520Z,1.85
2023-04-01T16:32:33.273Z,2.58
2023-04-01T16:35:16.222Z,3.00
2023-04-01T16:37:50.452Z,5.38
2023-04-01T16:40:53.718Z,9.52
2023-04-01T16:43:40.385Z,7.93
2023-04-01T16:46:44.807Z,7.00
2023-04-01T16:49:12.678Z,3.03
2023-04-01T16:51:53.207Z,4.63
2023-04-01T16:54:35.696Z,3.13
2023-04-01T16:57:18.158Z,8.70
2023-04-01T17:00:24.522Z,3.00
2023-04-01T17:02:58.901Z,7.05
2023-04-01T17:05:39.060Z,3.45
2023-04-01T17:08:18.579Z,3.42
2023-04-01T17:10:59.370Z,4.57
2023-04-01T17:13:37.416Z,5.47
2023-04-01T17:16:40.171Z,4.50
2023-04-01T17:19:10.779Z,3.58
2023-04-01T17:21:44.661Z,2.83
2023-04-01T17:24:33.085Z,9.52
2023-04-01T17:27:49.638Z,9.48
2023-04-01T17:30:37.579Z,3.80
2023-04-01T17:33:33.309Z,7.90
2023-04-01T17:36:13.415Z,6.57
2023-04-01T17:39:29.639Z,8.07
2023-04-01T17:42:11.063Z,6.25
2023-04-01T17:44:59.182Z,10.38
2023-04-01T17:47:36.573Z,9.07
2023-04-01T17:50:10.498Z,11.98
2023-04-01T17:52:50.259Z,15.63
2023-04-01T17:55:46.393Z,9.77
2023-04-01T17:58:23.515Z,10.50
2023-04-01T18:01:03.226Z,16.30
2023-04-01T18:03:37.303Z,16.77
2023-04-01T18:06:29.756Z,29.40
2023-04-01T18:09:31.788Z,27.15
2023-04-01T18:12:07.026Z,18.10
2023-04-01T18:15:10.803Z,23.95
2023-04-01T18:18:04.170Z,17.53
2023-04-01T18:20:40.979Z,24.63
2023-04-01T18:23:27.257Z,26.65
2023-04-01T18:26:04.448Z,24.05
2023-04-01T18:28:36.125Z,26.50
2023-04-01T18:31:04.145Z,20.98
2023-04-01T18:33:53.923Z,22.48
2023-04-01T18:36:37.379Z,25.73
2023-04-01T18:39:33.826Z,29.52
2023-04-01T18:42:18.326Z,29.80
2023-04-01T18:44:59.086Z,25.55
2023-04-01T18:48:08.257Z,31.27
2023-04-01T18:50:53.264Z,23.77
2023-04-01T18:53:33.048Z,26.33
2023-04-01T18:56:04.858Z,26.48
2023-04-01T18:58:35.613Z,28.20
2023-04-01T19:01:13.702Z,25.23
2023-04-01T19:03:50.959Z,21.08
2023-04-01T19:06:28.685Z,24.02
2023-04-01T19:09:13.215Z,29.10
2023-04-01T19:12:08.732Z,23.23
2023-04-01T19:14:48.514Z,20.38
2023-04-01T19:17:54.591Z,21.40
2023-04-01T19:20:58.503Z,16.90
2023-04-01T19:23:54.942Z,14.43
2023-04-01T19:26:43.100Z,14.27
2023-04-01T19:29:31.710Z,16.52
2023-04-01T19:32:09.859Z,24.85
2023-04-01T19:35:15.685Z,17.58
2023-04-01T19:37:55.592Z,10.93
2023-04-01T19:40:38.344Z,12.02
2023-04-01T19:43:36.692Z,9.25
2023-04-01T19:46:40.494Z,8.32
2023-04-01T19:49:20.561Z,9.77
2023-04-01T19:51:52.605Z,13.63
2023-04-01T19:54:20.140Z,19.80
2023-04-01T19:56:57.025Z,23.08
2023-04-01T19:59:35.961Z,24.30
2023-04-01T20:02:12.178Z,25.55
2023-04-01T20:04:51.997Z,20.02
2023-04-01T20:07:45.021Z,25.67
2023-04-01T20:10:22.341Z,21.90
2023-04-01T20:13:15.370Z,18.55
2023-04-01T20:15:56.236Z,22.52
2023-04-01T20:18:39.585Z,28.63
2023-04-01T20:21:16.379Z,20.85
2023-04-01T20:23:52.629Z,24.70
2023-04-01T20:26:24.399Z,29.58
2023-04-01T20:29:12.770Z,26.15
2023-04-01T20:31:48.681Z,22.27
2023-04-01T20:34:55.107Z,17.67
2023-04-01T20:37:33.448Z,20.35
2023-04-01T20:40:10.689Z,20.27
2023-04-01T20:42:58.984Z,25.65
2023-04-01T20:45:47.774Z,14.32
2023-04-01T20:48:24.269Z,17.13
2023-04-01T20:51:07.265Z,14.60
2023-04-01T20:53:45.006Z,12.70
2023-04-01T20:56:35.480Z,14.82
2023-04-01T20:59:19.104Z,14.73
2023-04-01T21:02:08.465Z,13.35
2023-04-01T21:04:44.185Z,14.95
2023-04-01T21:07:50.971Z,19.00
2023-04-01T21:10:56.448Z,16.55
2023-04-01T21:13:58.343Z,18.05
2023-04-01T21:16:50.733Z,17.33
2023-04-01T21:19:43.506Z,20.80
2023-04-01T21:22:42.714Z,22.52
2023-04-01T21:25:21.248Z,25.27
2023-04-01T21:28:24.900Z,27.08
2023-04-01T21:31:05.806Z,24.25
2023-04-01T21:33:52.182Z,25.52
2023-04-01T21:36:43.087Z,22.02
2023-04-01T21:42:19.937Z,26.27
2023-04-01T21:44:58.144Z,35.85
2023-04-01T21:47:52.784Z,35.00
2023-04-01T21:50:45.107Z,33.10
2023-04-01T21:53:22.017Z,31.92
2023-04-01T21:56:01.014Z,31.20
2023-04-01T21:59:03.766Z,35.25
2023-04-01T22:01:49.782Z,39.90
2023-04-01T22:04:45.855Z,37.75
2023-04-01T22:07:24.708Z,36.90
2023-04-01T22:10:11.082Z,37.15
2023-04-01T22:13:09.350Z,31.95
2023-04-01T22:16:07.444Z,38.53
2023-04-01T22:18:42.069Z,42.38
2023-04-01T22:21:35.940Z,38.72
2023-04-01T22:24:13.003Z,41.42
2023-04-01T22:26:44.354Z,39.15
2023-04-01T22:29:18.040Z,42.22
2023-04-01T22:31:49.142Z,48.95
2023-04-01T22:34:37.144Z,40.85
2023-04-01T22:37:18.485Z,37.90
2023-04-01T22:40:02.089Z,39.17
2023-04-01T22:42:54.667Z,39.00
2023-04-01T22:45:48.090Z,40.25
2023-04-01T22:48:26.874Z,42.10
2023-04-01T22:51:50.071Z,41.58
2023-04-01T22:54:30.146Z,41.80
2023-04-01T22:57:01.349Z,37.45
2023-04-01T22:59:58.493Z,48.22
2023-04-01T23:02:32.077Z,40.40
2023-04-01T23:05:03.473Z,42.05
2023-04-01T23:08:10.914Z,45.00
2023-04-01T23:10:45.752Z,46.00
2023-04-01T23:13:19.721Z,42.85
2023-04-01T23:15:48.981Z,48.63
2023-04-01T23:18:21.571Z,48.08
2023-04-01T23:21:47.496Z,52.40
2023-04-01T23:24:15.122Z,50.97
2023-04-01T23:27:18.342Z,45.70
2023-04-01T23:29:46.430Z,46.05
2023-04-01T23:32:19.335Z,44.63
2023-04-01T23:34:53.636Z,38.35
2023-04-01T23:37:22.372Z,43.08
2023-04-01T23:39:55.089Z,50.20
2023-04-01T23:42:30.265Z,38.13
2023-04-01T23:45:01.890Z,39.03
2023-04-01T23:47:41.307Z,45.72
2023-04-01T23:50:17.766Z,42.53
2023-04-01T23:52:49.442Z,45.38
2023-04-01T23:55:25.420Z,46.90
2023-04-01T23:58:17.783Z,46.97
